AirNav   Everest Fuels
 
 572 users online  

FL74 Indian River Aerodrome
Vero Beach, Florida, USA

GOING TO VERO BEACH?


FAA INFORMATION EFFECTIVE 30 DECEMBER 2021

Location

FAA Identifier: FL74
Lat/Long: 27-35-55.1210N 080-30-07.1940W
27-35.918683N 080-30.119900W
27.5986447,-80.5019983
(estimated)
Elevation: 25 ft. / 8 m (estimated)
Variation: 03W (1985)
From city: 6 miles SW of VERO BEACH, FL
Time zone: UTC -5 (UTC -4 during Daylight Saving Time)
Zip code: 32968

Airport Operations

Airport use: Private use. Permission required prior to landing
Activation date: 09/1972
Control tower: no
ARTCC: MIAMI CENTER
FSS: SAINT PETERSBURG FLIGHT SERVICE STATION
Attendance: SR-SS
Wind indicator: yes
Segmented circle: no
Lights: FOR LIRL RY 17/35 KEY UNICOM 5 TIMES.

Airport Communications

WX ASOS at VRB (6 nm NE): 120.575 (772-978-9535)
WX ASOS at FPR (9 nm SE): PHONE 772-489-4281
WX AWOS-3PT at X26 (13 nm N): 118.125 (772-388-5689)

Nearby radio navigation aids

VOR radial/distance  VOR name  Freq  Var
TRVr195/4.8TREASURE VORTAC117.3007W
MLBr174/31.2MELBOURNE VOR/DME115.8507W

 
NDB name  Hdg/Dist  Freq  Var  ID
FORT PIERCE321/9.627507WFPR ..-. .--. .-.

Airport Services

Airframe service: NONE
Powerplant service: NONE

Runway Information

Runway 17/35

Dimensions: 2600 x 150 ft. / 792 x 46 m
Surface: turf
Runway edge lights: low intensity
RUNWAY 17  RUNWAY 35
Traffic pattern: leftleft
Obstructions: 6 ft. canal, 100 ft. from runwayroad

Airport Ownership and Management from official FAA records

Ownership: Privately-owned
Owner: INDIAN RIVER AERODROME POA
460 SOPWITH DRIVE
VERO BEACH, FL 32968
Manager: DAVID J VON LINSOWE
160 SOPWITH DR.
VERO BEACH, FL 32968
Phone (772) 563-3671

Airport Operational Statistics

Aircraft based on the field: 32
Single engine airplanes: 30
Multi engine airplanes: 1
Ultralights: 1
    

Additional Remarks

FOR CD CTC PALM BEACH APCH AT 561-275-1430

Instrument Procedures

There are no published instrument procedures at FL74.

Some nearby airports with instrument procedures:

KVRB - Vero Beach Regional Airport (6 nm NE)
KFPR - Treasure Coast International Airport (9 nm SE)
X26 - Sebastian Municipal Airport (13 nm N)
KOBE - Okeechobee County Airport (27 nm SW)
KSUA - Witham Field Airport (29 nm SE)
 
Loc | Ops | Rwys | IFR | FBO | Links
Com | Nav | Svcs | Stats | Notes


 
Area around FL74 (Indian River Aerodrome)
 
Road maps at: MapQuest Bing Google
 
Aerial photo
WARNING: Photo may not be current or correct
Aerial photo of FL74 (Indian River Aerodrome)
Do you have a better or more recent aerial photo of Indian River Aerodrome that you would like to share? If so, please send us your photo.

 
Sectional chart

 
Airport distance calculator
Flying to Indian River Aerodrome? Find the distance to fly.

From to FL74

Sunrise and sunset
Times for 24-Jan-2022
 Local
(UTC-5)
 Zulu
(UTC)
Morning civil twilight06:4811:48
Sunrise07:1312:13
Sunset17:5522:55
Evening civil twilight18:2023:20

Current date and time
Zulu (UTC)  24-Jan-2022 06:14:35
Local (UTC-5)  24-Jan-2022 01:14:35
 
METAR
KVRB 
5nm NE 
240553Z AUTO 30009KT 10SM CLR 06/04 A3002 RMK AO2 SLP165 T00560044 10106 20056 56009
KFPR 
9nm SE 
240553Z AUTO 29005KT 10SM CLR 06/04 A3002 RMK AO2 SLP164 T00610044 10106 20061 56010
KX26 
13nm N 
240555Z AUTO 29006KT 10SM CLR 05/04 A3003 RMK AO2 T00460039 10103 20046
TAF
KVRB 
5nm NE 
240329Z 2403/2424 29008KT P6SM SKC TEMPO 2403/2404 BKN035 FM241500 33009KT P6SM SCT250 FM241900 32008KT P6SM BKN200
KFPR 
9nm SE 
240523Z 2406/2506 30008KT P6SM SKC FM241500 33008KT P6SM SKC FM241900 35007KT P6SM SCT250 FM242300 25003KT P6SM BKN200
NOTAMs
Click for the latest NOTAMs
NOTAMs are issued by the DoD/FAA and will open in a separate window not controlled by AirNav.

 

 
 

Would you like to see your business listed on this page?

 If your business provides an interesting product or service to pilots, flight crews, aircraft, or users of the Indian River Aerodrome, you should consider listing it here.  To start the listing process, click on the button below
 
Add a business
 

Other Pages about Indian River Aerodrome

Update a link
 
Copyright © AirNav, LLC. All rights reserved. Privacy Policy  Contact